createdAt,value
2022-10-31T00:01:19.435Z,75.61
2022-10-31T00:03:46.591Z,75.53
2022-10-31T00:06:13.431Z,75.72
2022-10-31T00:08:40.586Z,76.24
2022-10-31T00:11:11.352Z,75.49
2022-10-31T00:13:38.499Z,75.39
2022-10-31T00:16:06.399Z,75.72
2022-10-31T00:18:34.554Z,75.94
2022-10-31T00:21:05.013Z,75.45
2022-10-31T00:23:32.523Z,76.42
2022-10-31T00:26:03.590Z,75.49
2022-10-31T00:28:34.176Z,75.74
2022-10-31T00:31:05.744Z,75.76
2022-10-31T00:33:35.035Z,75.94
2022-10-31T00:36:02.206Z,76.12
2022-10-31T00:38:29.424Z,75.88
2022-10-31T00:40:56.535Z,75.11
2022-10-31T00:43:23.674Z,75.17
2022-10-31T00:45:51.041Z,75.21
2022-10-31T00:48:18.216Z,75.91
2022-10-31T00:50:45.179Z,75.59
2022-10-31T00:53:12.065Z,75.33
2022-10-31T00:55:39.026Z,75.69
2022-10-31T00:58:06.036Z,76.12
2022-10-31T01:00:33.091Z,75.95
2022-10-31T01:03:00.515Z,76.41
2022-10-31T01:05:27.864Z,76.95
2022-10-31T01:07:54.870Z,77.25
2022-10-31T01:10:22.312Z,77.10
2022-10-31T01:12:50.436Z,76.81
2022-10-31T01:15:21.930Z,76.56
2022-10-31T01:17:51.085Z,76.33
2022-10-31T01:20:18.246Z,76.40
2022-10-31T01:22:45.755Z,75.94
2022-10-31T01:25:13.022Z,75.31
2022-10-31T01:27:40.119Z,75.60
2022-10-31T01:30:07.705Z,75.23
2022-10-31T01:32:34.690Z,75.21
2022-10-31T01:35:01.667Z,75.25
2022-10-31T01:37:28.724Z,75.25
2022-10-31T01:39:55.704Z,75.39
2022-10-31T01:42:24.762Z,76.87
2022-10-31T01:45:03.142Z,77.14
2022-10-31T01:47:39.419Z,76.61
2022-10-31T01:50:14.083Z,76.72
2022-10-31T01:52:51.468Z,76.43
2022-10-31T01:55:30.382Z,76.60
2022-10-31T01:58:03.676Z,76.21
2022-10-31T02:00:31.359Z,75.68
2022-10-31T02:02:58.796Z,75.19
2022-10-31T02:05:30.192Z,75.39
2022-10-31T02:08:03.168Z,75.65
2022-10-31T02:10:33.276Z,75.84
2022-10-31T02:13:03.629Z,75.53
2022-10-31T02:15:31.900Z,75.79
2022-10-31T02:17:59.549Z,74.86
2022-10-31T02:20:33.500Z,75.61
2022-10-31T02:23:21.052Z,76.16
2022-10-31T02:26:16.062Z,76.76
2022-10-31T02:29:20.643Z,77.21
2022-10-31T02:32:08.979Z,77.17
2022-10-31T02:34:42.045Z,77.30
2022-10-31T02:37:33.953Z,79.48
2022-10-31T02:40:06.550Z,80.12
2022-10-31T02:42:42.216Z,78.67
2022-10-31T02:45:20.333Z,77.09
2022-10-31T02:47:51.642Z,76.80
2022-10-31T02:50:18.631Z,76.84
2022-10-31T02:52:45.544Z,76.75
2022-10-31T02:55:13.798Z,78.68
2022-10-31T02:57:43.797Z,77.73
2022-10-31T03:00:11.353Z,76.93
2022-10-31T03:02:56.956Z,76.70
2022-10-31T03:05:48.554Z,76.44
2022-10-31T03:08:24.391Z,76.14
2022-10-31T03:11:02.441Z,75.68
2022-10-31T03:13:50.952Z,75.98
2022-10-31T03:16:48.973Z,76.90
2022-10-31T03:19:33.127Z,76.34
2022-10-31T03:22:15.818Z,75.81
2022-10-31T03:24:44.485Z,75.99
2022-10-31T03:27:16.330Z,76.34
2022-10-31T03:29:46.042Z,75.93
2022-10-31T03:32:23.723Z,76.12
2022-10-31T03:34:52.569Z,75.97
2022-10-31T03:37:23.364Z,75.96
2022-10-31T03:39:51.466Z,76.26
2022-10-31T03:42:31.614Z,76.66
2022-10-31T03:45:03.819Z,76.49
2022-10-31T03:47:31.042Z,77.05
2022-10-31T03:49:59.698Z,77.24
2022-10-31T03:52:43.884Z,77.60
2022-10-31T03:55:19.183Z,78.13
2022-10-31T03:58:09.038Z,79.26
2022-10-31T04:00:40.472Z,78.74
2022-10-31T04:03:18.631Z,77.33
2022-10-31T04:05:49.589Z,77.00
2022-10-31T04:08:25.220Z,77.52
2022-10-31T04:10:54.776Z,77.54
2022-10-31T04:13:27.206Z,77.27
2022-10-31T04:15:56.379Z,77.39
2022-10-31T04:18:27.167Z,76.81
2022-10-31T04:21:08.781Z,76.59
2022-10-31T04:23:37.835Z,76.24
2022-10-31T04:26:05.413Z,76.45
2022-10-31T04:28:34.159Z,76.01
2022-10-31T04:31:01.506Z,76.52
2022-10-31T04:33:28.437Z,76.57
2022-10-31T04:35:55.416Z,77.27
2022-10-31T04:38:22.401Z,77.32
2022-10-31T04:40:49.406Z,78.24
2022-10-31T04:43:16.382Z,78.67
2022-10-31T04:45:43.391Z,80.28
2022-10-31T04:48:10.317Z,80.00
2022-10-31T04:50:37.359Z,80.06
2022-10-31T04:53:04.477Z,78.50
2022-10-31T04:55:31.680Z,79.78
2022-10-31T04:57:59.355Z,81.29
2022-10-31T05:00:26.668Z,81.69
2022-10-31T05:02:55.882Z,79.87
2022-10-31T05:05:25.893Z,78.74
2022-10-31T05:07:54.113Z,78.67
2022-10-31T05:10:24.260Z,78.34
2022-10-31T05:13:00.126Z,78.59
2022-10-31T05:15:29.280Z,78.96
2022-10-31T05:17:57.126Z,78.94
2022-10-31T05:20:27.168Z,79.15
2022-10-31T05:22:56.326Z,79.14
2022-10-31T05:25:25.420Z,78.93
2022-10-31T05:27:53.387Z,78.81
2022-10-31T05:30:29.883Z,78.35
2022-10-31T05:32:57.203Z,78.79
2022-10-31T05:35:30.310Z,79.15
2022-10-31T05:37:58.894Z,78.93
2022-10-31T05:40:27.304Z,78.59
2022-10-31T05:42:56.673Z,78.57
2022-10-31T05:45:25.238Z,78.84
2022-10-31T05:47:57.720Z,79.63
2022-10-31T05:50:27.509Z,80.02
2022-10-31T05:52:59.572Z,79.40
2022-10-31T05:55:27.593Z,79.94
2022-10-31T05:57:55.849Z,80.03
2022-10-31T06:00:23.520Z,79.64
2022-10-31T06:02:50.469Z,79.86
2022-10-31T06:05:18.094Z,79.98
2022-10-31T06:07:45.029Z,79.72
2022-10-31T06:10:12.128Z,80.49
2022-10-31T06:12:39.200Z,80.60
2022-10-31T06:15:07.284Z,80.86
2022-10-31T06:17:35.684Z,80.40
2022-10-31T06:20:03.449Z,79.99
2022-10-31T06:22:30.513Z,79.53
2022-10-31T06:24:57.702Z,79.41
2022-10-31T06:27:25.194Z,79.72
2022-10-31T06:29:52.844Z,79.76
2022-10-31T06:32:20.277Z,80.20
2022-10-31T06:34:49.601Z,79.75
2022-10-31T06:37:16.972Z,79.83
2022-10-31T06:39:43.947Z,79.23
2022-10-31T06:42:11.046Z,79.25
2022-10-31T06:44:38.199Z,79.13
2022-10-31T06:47:06.635Z,78.92
2022-10-31T06:49:33.812Z,79.08
2022-10-31T06:52:00.803Z,78.93
2022-10-31T06:54:27.858Z,78.37
2022-10-31T06:56:54.816Z,79.10
2022-10-31T06:59:21.752Z,78.47
2022-10-31T07:01:48.756Z,78.66
2022-10-31T07:04:15.794Z,79.15
2022-10-31T07:06:42.830Z,78.91
2022-10-31T07:09:09.878Z,78.49
2022-10-31T07:11:36.877Z,78.88
2022-10-31T07:14:03.948Z,78.73
2022-10-31T07:16:30.875Z,78.73
2022-10-31T07:18:57.895Z,78.68
2022-10-31T07:21:25.267Z,79.06
2022-10-31T07:23:52.231Z,78.47
2022-10-31T07:26:19.432Z,79.06
2022-10-31T07:28:48.949Z,78.43
2022-10-31T07:31:15.896Z,78.19
2022-10-31T07:33:42.837Z,78.26
2022-10-31T07:36:10.300Z,78.42
2022-10-31T07:38:37.576Z,78.49
2022-10-31T07:41:04.636Z,78.70
2022-10-31T07:43:31.591Z,78.26
2022-10-31T07:45:58.540Z,77.71
2022-10-31T07:48:25.542Z,77.71
2022-10-31T07:50:52.876Z,78.07
2022-10-31T07:53:19.840Z,78.14
2022-10-31T07:55:46.879Z,78.29
2022-10-31T07:58:18.357Z,78.53
2022-10-31T08:00:47.884Z,77.96
2022-10-31T08:03:17.317Z,77.50
2022-10-31T08:05:47.121Z,77.64
2022-10-31T08:08:15.077Z,78.15
2022-10-31T08:10:42.485Z,78.28
2022-10-31T08:13:14.330Z,77.88
2022-10-31T08:15:43.155Z,78.22
2022-10-31T08:18:17.695Z,78.02
2022-10-31T08:20:45.100Z,77.75
2022-10-31T08:23:13.289Z,78.56
2022-10-31T08:25:41.689Z,78.13
2022-10-31T08:28:10.769Z,78.06
2022-10-31T08:30:39.062Z,78.19
2022-10-31T08:33:10.543Z,78.28
2022-10-31T08:35:37.750Z,77.65
2022-10-31T08:38:05.144Z,78.61
2022-10-31T08:40:33.876Z,78.69
2022-10-31T08:43:05.451Z,78.49
2022-10-31T08:45:34.208Z,77.66
2022-10-31T08:48:04.074Z,78.11
2022-10-31T08:50:33.319Z,76.99
2022-10-31T08:53:12.244Z,77.48
2022-10-31T08:55:40.685Z,77.24
2022-10-31T08:58:11.545Z,77.47
2022-10-31T09:00:39.589Z,77.04
2022-10-31T09:03:12.551Z,76.67
2022-10-31T09:05:39.949Z,75.62
2022-10-31T09:08:13.112Z,76.66
2022-10-31T09:10:43.868Z,76.52
2022-10-31T09:13:13.301Z,76.54
2022-10-31T09:15:42.323Z,76.08
2022-10-31T09:18:10.173Z,75.93
2022-10-31T09:20:39.340Z,75.70
2022-10-31T09:23:11.863Z,76.57
2022-10-31T09:25:39.808Z,76.09
2022-10-31T09:28:08.251Z,75.70
2022-10-31T09:30:36.832Z,75.75
2022-10-31T09:33:06.095Z,75.83
2022-10-31T09:35:34.009Z,75.34
2022-10-31T09:38:03.572Z,76.09
2022-10-31T09:40:37.763Z,75.46
2022-10-31T09:43:29.035Z,75.70
2022-10-31T09:46:14.600Z,75.59
2022-10-31T09:48:51.564Z,75.14
2022-10-31T09:51:31.060Z,74.77
2022-10-31T09:54:07.000Z,75.37
2022-10-31T09:56:34.605Z,74.62
2022-10-31T09:59:04.199Z,74.95
2022-10-31T10:01:46.551Z,74.86
2022-10-31T10:04:42.681Z,75.13
2022-10-31T10:07:44.600Z,75.38
2022-10-31T10:10:23.724Z,75.24
2022-10-31T10:13:21.619Z,75.19
2022-10-31T10:16:34.699Z,75.10
2022-10-31T10:19:10.973Z,75.36
2022-10-31T10:21:51.348Z,75.10
2022-10-31T10:24:24.481Z,75.21
2022-10-31T10:27:19.197Z,74.92
2022-10-31T10:30:04.857Z,74.93
2022-10-31T10:32:49.357Z,75.16
2022-10-31T10:35:22.689Z,74.68
2022-10-31T10:37:53.012Z,74.37
2022-10-31T10:40:24.860Z,74.02
2022-10-31T10:43:26.655Z,74.23
2022-10-31T10:46:33.599Z,74.25
2022-10-31T10:49:36.740Z,74.79
2022-10-31T10:55:18.010Z,74.71
2022-10-31T10:57:59.554Z,75.23
2022-10-31T11:00:29.027Z,74.34
2022-10-31T11:02:56.756Z,73.98
2022-10-31T11:05:26.021Z,74.37
2022-10-31T11:07:53.286Z,73.87
2022-10-31T11:10:20.476Z,74.11
2022-10-31T11:13:01.920Z,73.48
2022-10-31T11:15:32.245Z,73.11
2022-10-31T11:17:59.245Z,73.27
2022-10-31T11:20:37.136Z,73.13
2022-10-31T11:23:18.713Z,73.37
2022-10-31T11:25:57.852Z,72.55
2022-10-31T11:28:25.351Z,72.21
2022-10-31T11:30:58.859Z,71.62
2022-10-31T11:33:32.132Z,72.11
2022-10-31T11:36:00.134Z,71.53
2022-10-31T11:38:43.398Z,71.08
2022-10-31T11:41:20.217Z,71.35
2022-10-31T11:43:51.644Z,70.97
2022-10-31T11:46:29.296Z,70.79
2022-10-31T11:48:57.816Z,70.74
2022-10-31T11:51:33.046Z,70.60
2022-10-31T11:54:03.741Z,70.00
2022-10-31T11:56:42.455Z,69.56
2022-10-31T11:59:30.961Z,70.22
2022-10-31T12:02:00.564Z,70.03
2022-10-31T12:04:45.843Z,69.89
2022-10-31T12:07:13.014Z,70.38
2022-10-31T12:09:41.382Z,69.99
2022-10-31T12:12:39.353Z,69.25
2022-10-31T12:15:16.148Z,69.40
2022-10-31T12:17:50.661Z,69.81
2022-10-31T12:20:42.592Z,69.41
2022-10-31T12:23:25.204Z,69.27
2022-10-31T12:26:14.960Z,69.15
2022-10-31T12:29:00.878Z,68.72
2022-10-31T12:31:52.588Z,68.96
2022-10-31T12:34:37.556Z,68.99
2022-10-31T12:37:22.753Z,68.90
2022-10-31T12:40:34.624Z,69.10
2022-10-31T12:43:39.662Z,69.06
2022-10-31T12:46:30.712Z,68.82
2022-10-31T12:49:00.401Z,69.95
2022-10-31T12:51:45.735Z,70.44
2022-10-31T12:54:33.972Z,70.45
2022-10-31T12:57:37.674Z,70.23
2022-10-31T13:00:12.588Z,70.27
2022-10-31T13:02:53.204Z,70.74
2022-10-31T13:05:23.216Z,71.11
2022-10-31T13:08:07.821Z,70.80
2022-10-31T13:10:46.197Z,71.32
2022-10-31T13:13:19.669Z,71.70
2022-10-31T13:15:54.568Z,71.72
2022-10-31T13:18:31.499Z,71.17
2022-10-31T13:21:03.279Z,71.75
2022-10-31T13:23:51.996Z,71.63
2022-10-31T13:26:34.509Z,71.49
2022-10-31T13:29:31.620Z,72.55
2022-10-31T13:32:02.534Z,71.95
2022-10-31T13:34:34.772Z,72.10
2022-10-31T13:37:01.670Z,72.76
2022-10-31T13:40:12.265Z,72.07
2022-10-31T13:43:06.704Z,73.00
2022-10-31T13:45:33.693Z,72.86
2022-10-31T13:48:03.339Z,72.84
2022-10-31T13:50:32.952Z,73.05
2022-10-31T13:53:19.239Z,74.21
2022-10-31T13:55:49.483Z,74.12
2022-10-31T13:58:29.836Z,74.38
2022-10-31T14:01:26.105Z,74.00
2022-10-31T14:04:13.031Z,74.92
2022-10-31T14:06:55.740Z,75.50
2022-10-31T14:09:31.020Z,75.27
2022-10-31T14:12:01.921Z,75.43
2022-10-31T14:14:35.442Z,75.39
2022-10-31T14:17:04.092Z,76.16
2022-10-31T14:19:31.100Z,76.03
2022-10-31T14:21:58.016Z,76.04
2022-10-31T14:24:24.977Z,77.18
2022-10-31T14:26:57.662Z,77.24
2022-10-31T14:29:30.737Z,76.86
2022-10-31T14:32:00.007Z,76.48
2022-10-31T14:34:37.798Z,77.24
2022-10-31T14:37:25.960Z,77.84
2022-10-31T14:40:20.773Z,77.39
2022-10-31T14:43:16.985Z,77.81
2022-10-31T14:45:53.101Z,77.92
2022-10-31T14:48:35.128Z,77.65
2022-10-31T14:51:10.060Z,77.84
2022-10-31T14:53:48.766Z,77.71
2022-10-31T14:56:24.721Z,78.04
2022-10-31T14:58:52.159Z,78.28
2022-10-31T15:01:31.112Z,78.13
2022-10-31T15:04:23.674Z,78.48
2022-10-31T15:07:00.720Z,78.75
2022-10-31T15:09:31.284Z,78.73
2022-10-31T15:12:01.492Z,78.87
2022-10-31T15:14:31.645Z,79.15
2022-10-31T15:17:02.721Z,78.78
2022-10-31T15:19:33.596Z,79.37
2022-10-31T15:22:02.003Z,80.26
2022-10-31T15:24:35.556Z,79.95
2022-10-31T15:27:05.142Z,80.30
2022-10-31T15:29:33.332Z,80.68
2022-10-31T15:32:02.794Z,80.77
2022-10-31T15:34:40.167Z,79.76
2022-10-31T15:37:18.789Z,79.85
2022-10-31T15:39:48.045Z,79.84
2022-10-31T15:42:31.518Z,80.69
2022-10-31T15:45:02.799Z,80.72
2022-10-31T15:47:32.082Z,79.82
2022-10-31T15:50:00.820Z,80.83
2022-10-31T15:52:43.783Z,80.75
2022-10-31T15:55:32.103Z,81.21
2022-10-31T15:58:04.853Z,80.64
2022-10-31T16:00:37.287Z,80.48
2022-10-31T16:03:25.969Z,81.07
2022-10-31T16:05:59.000Z,80.95
2022-10-31T16:08:27.333Z,81.34
2022-10-31T16:10:55.443Z,80.60
2022-10-31T16:13:28.137Z,79.98
2022-10-31T16:19:01.703Z,79.95
2022-10-31T16:21:36.053Z,81.24
2022-10-31T16:24:19.866Z,81.23
2022-10-31T16:26:55.801Z,80.65
2022-10-31T16:29:33.788Z,81.74
2022-10-31T16:32:00.890Z,82.29
2022-10-31T16:34:28.118Z,82.92
2022-10-31T16:36:55.261Z,82.91
2022-10-31T16:39:22.493Z,82.74
2022-10-31T16:41:53.443Z,82.83
2022-10-31T16:44:27.707Z,83.38
2022-10-31T16:47:11.513Z,83.63
2022-10-31T16:49:38.713Z,83.15
2022-10-31T16:52:06.980Z,82.86
2022-10-31T16:54:34.136Z,81.64
2022-10-31T16:57:02.395Z,82.89
2022-10-31T16:59:31.509Z,82.49
2022-10-31T17:01:59.951Z,82.44
2022-10-31T17:04:27.019Z,81.94
2022-10-31T17:06:53.941Z,81.99
2022-10-31T17:09:22.383Z,82.44
2022-10-31T17:11:54.256Z,81.50
2022-10-31T17:14:22.409Z,81.74
2022-10-31T17:16:49.747Z,82.37
2022-10-31T17:19:22.129Z,82.03
2022-10-31T17:21:49.247Z,81.69
2022-10-31T17:24:18.663Z,82.06
2022-10-31T17:26:45.813Z,82.20
2022-10-31T17:29:15.631Z,81.50
2022-10-31T17:31:45.790Z,81.81
2022-10-31T17:34:13.024Z,81.62
2022-10-31T17:36:40.026Z,81.56
2022-10-31T17:39:10.022Z,81.67
2022-10-31T17:41:40.339Z,81.89
2022-10-31T17:44:07.868Z,81.59
2022-10-31T17:46:34.923Z,80.67
2022-10-31T17:49:02.170Z,81.81
2022-10-31T17:51:29.273Z,81.41
2022-10-31T17:53:56.425Z,83.23
2022-10-31T17:56:26.942Z,81.56
2022-10-31T17:58:55.476Z,81.86
2022-10-31T18:01:22.594Z,82.19
2022-10-31T18:03:50.322Z,81.66
2022-10-31T18:06:17.360Z,81.88
2022-10-31T18:08:47.399Z,82.39
2022-10-31T18:11:18.094Z,82.44
2022-10-31T18:13:45.197Z,82.40
2022-10-31T18:16:15.604Z,82.86
2022-10-31T18:18:43.053Z,82.13
2022-10-31T18:21:13.483Z,81.81
2022-10-31T18:23:40.440Z,82.20
2022-10-31T18:26:07.471Z,82.39
2022-10-31T18:28:34.452Z,82.83
2022-10-31T18:31:01.769Z,83.26
2022-10-31T18:33:29.388Z,83.26
2022-10-31T18:35:56.600Z,82.69
2022-10-31T18:38:24.514Z,82.94
2022-10-31T18:40:52.151Z,82.37
2022-10-31T18:43:19.222Z,82.55
2022-10-31T18:45:49.378Z,82.95
2022-10-31T18:48:18.326Z,82.46
2022-10-31T18:50:45.530Z,83.20
2022-10-31T18:53:12.753Z,82.99
2022-10-31T18:55:45.735Z,83.40
2022-10-31T18:58:17.373Z,83.23
2022-10-31T19:00:45.251Z,82.83
2022-10-31T19:03:12.993Z,83.16
2022-10-31T19:05:40.169Z,82.96
2022-10-31T19:08:07.143Z,83.05
2022-10-31T19:10:40.702Z,82.56
2022-10-31T19:13:08.034Z,82.82
2022-10-31T19:15:36.193Z,82.17
2022-10-31T19:18:03.981Z,82.98
2022-10-31T19:20:31.602Z,82.65
2022-10-31T19:22:59.342Z,82.76
2022-10-31T19:25:26.645Z,82.26
2022-10-31T19:27:53.571Z,82.63
2022-10-31T19:30:21.731Z,83.44
2022-10-31T19:32:49.194Z,82.88
2022-10-31T19:35:16.154Z,82.90
2022-10-31T19:37:44.209Z,82.81
2022-10-31T19:40:11.867Z,82.30
2022-10-31T19:42:38.858Z,82.44
2022-10-31T19:45:06.431Z,82.35
2022-10-31T19:47:33.950Z,82.45
2022-10-31T19:50:00.954Z,82.02
2022-10-31T19:52:27.941Z,82.18
2022-10-31T19:54:54.891Z,82.68
2022-10-31T19:57:30.825Z,82.72
2022-10-31T20:00:09.635Z,82.49
2022-10-31T20:02:36.958Z,82.50
2022-10-31T20:05:04.091Z,83.08
2022-10-31T20:07:31.049Z,82.96
2022-10-31T20:09:58.070Z,82.95
2022-10-31T20:12:25.037Z,82.94
2022-10-31T20:14:52.136Z,82.82
2022-10-31T20:17:19.107Z,82.55
2022-10-31T20:19:46.228Z,82.55
2022-10-31T20:22:13.479Z,82.82
2022-10-31T20:24:40.564Z,82.91
2022-10-31T20:27:07.585Z,82.24
2022-10-31T20:29:34.555Z,82.54
2022-10-31T20:32:01.535Z,82.60
2022-10-31T20:34:28.493Z,82.22
2022-10-31T20:36:55.409Z,82.67
2022-10-31T20:39:22.865Z,82.81
2022-10-31T20:41:49.865Z,82.67
2022-10-31T20:44:16.947Z,82.66
2022-10-31T20:46:43.838Z,83.04
2022-10-31T20:49:10.857Z,81.88
2022-10-31T20:51:37.859Z,82.60
2022-10-31T20:54:04.863Z,82.56
2022-10-31T20:56:31.819Z,82.94
2022-10-31T20:58:59.061Z,83.19
2022-10-31T21:01:33.462Z,83.00
2022-10-31T21:04:00.580Z,83.34
2022-10-31T21:06:28.529Z,83.02
2022-10-31T21:08:56.486Z,83.08
2022-10-31T21:11:26.970Z,83.03
2022-10-31T21:13:54.464Z,83.04
2022-10-31T21:16:24.862Z,82.91
2022-10-31T21:18:52.311Z,83.17
2022-10-31T21:21:28.889Z,83.38
2022-10-31T21:24:04.022Z,82.73
2022-10-31T21:26:34.335Z,82.74
2022-10-31T21:29:10.043Z,82.83
2022-10-31T21:31:38.478Z,83.00
2022-10-31T21:34:06.188Z,82.46
2022-10-31T21:36:34.159Z,82.44
2022-10-31T21:39:01.351Z,82.15
2022-10-31T21:41:29.444Z,82.39
2022-10-31T21:43:56.566Z,82.65
2022-10-31T21:46:26.023Z,82.83
2022-10-31T21:48:53.920Z,82.83
2022-10-31T21:51:29.714Z,82.88
2022-10-31T21:54:15.379Z,82.61
2022-10-31T21:56:42.712Z,82.82
2022-10-31T21:59:10.153Z,82.98
2022-10-31T22:01:37.778Z,82.20
2022-10-31T22:04:05.300Z,82.62
2022-10-31T22:06:32.881Z,82.47
2022-10-31T22:09:02.146Z,82.18
2022-10-31T22:11:29.312Z,82.30
2022-10-31T22:13:58.724Z,82.78
2022-10-31T22:16:27.343Z,82.73
2022-10-31T22:18:56.587Z,82.38
2022-10-31T22:21:25.833Z,82.21
2022-10-31T22:24:03.500Z,82.56
2022-10-31T22:26:34.132Z,82.28
2022-10-31T22:29:06.160Z,82.62
2022-10-31T22:31:34.849Z,82.85
2022-10-31T22:34:01.816Z,82.54
2022-10-31T22:36:30.750Z,82.59
2022-10-31T22:38:58.652Z,82.66
2022-10-31T22:41:28.397Z,82.72
2022-10-31T22:43:56.523Z,82.57
2022-10-31T22:46:25.557Z,82.75
2022-10-31T22:48:55.479Z,82.24
2022-10-31T22:51:28.293Z,82.83
2022-10-31T22:53:58.961Z,82.38
2022-10-31T22:56:29.123Z,82.29
2022-10-31T22:58:56.751Z,82.27
2022-10-31T23:01:32.761Z,82.49
2022-10-31T23:04:00.794Z,82.36
2022-10-31T23:06:30.563Z,82.47
2022-10-31T23:08:58.032Z,81.88
2022-10-31T23:11:32.650Z,82.41
2022-10-31T23:14:10.289Z,82.29
2022-10-31T23:16:55.031Z,82.55
2022-10-31T23:19:23.998Z,82.49
2022-10-31T23:21:57.639Z,82.57
2022-10-31T23:24:42.850Z,82.49
2022-10-31T23:27:11.798Z,82.89
2022-10-31T23:29:46.055Z,82.85
2022-10-31T23:32:16.239Z,82.96
2022-10-31T23:34:43.511Z,82.87
2022-10-31T23:37:10.702Z,82.72
2022-10-31T23:39:37.814Z,82.77
2022-10-31T23:42:05.397Z,83.22
2022-10-31T23:44:32.425Z,83.21
2022-10-31T23:46:59.828Z,83.26
2022-10-31T23:49:26.779Z,82.81
2022-10-31T23:51:53.670Z,82.58
2022-10-31T23:54:20.722Z,82.66
2022-10-31T23:56:47.704Z,83.25
2022-10-31T23:59:14.968Z,83.03
